createdAt,value
2023-05-14T00:00:47.496Z,18.98
2023-05-14T00:03:14.635Z,21.15
2023-05-14T00:05:41.547Z,16.42
2023-05-14T00:08:08.264Z,20.88
2023-05-14T00:10:35.325Z,22.98
2023-05-14T00:13:02.339Z,21.73
2023-05-14T00:15:29.077Z,18.30
2023-05-14T00:17:55.901Z,23.20
2023-05-14T00:20:23.014Z,23.27
2023-05-14T00:22:50.092Z,19.23
2023-05-14T00:25:16.814Z,21.88
2023-05-14T00:27:43.516Z,21.35
2023-05-14T00:30:10.638Z,21.48
2023-05-14T00:32:37.507Z,20.95
2023-05-14T00:35:04.618Z,20.42
2023-05-14T00:37:31.516Z,19.15
2023-05-14T00:39:58.728Z,12.45
2023-05-14T00:42:26.691Z,21.73
2023-05-14T00:44:53.574Z,20.83
2023-05-14T00:47:20.938Z,18.83
2023-05-14T00:49:47.641Z,16.20
2023-05-14T00:52:15.399Z,22.05
2023-05-14T00:54:42.765Z,21.77
2023-05-14T00:57:09.571Z,18.23
2023-05-14T00:59:36.473Z,19.95
2023-05-14T01:02:03.213Z,24.05
2023-05-14T01:04:30.013Z,18.23
2023-05-14T01:07:34.826Z,20.85
2023-05-14T01:10:27.821Z,17.90
2023-05-14T01:13:18.426Z,16.80
2023-05-14T01:15:47.935Z,16.00
2023-05-14T01:18:18.282Z,18.63
2023-05-14T01:23:12.268Z,18.25
2023-05-14T01:25:39.064Z,18.85
2023-05-14T01:28:05.806Z,17.92
2023-05-14T01:31:01.824Z,17.48
2023-05-14T01:33:29.867Z,23.25
2023-05-14T01:35:56.701Z,21.60
2023-05-14T01:38:24.371Z,19.95
2023-05-14T01:40:52.038Z,23.27
2023-05-14T01:43:19.233Z,24.05
2023-05-14T01:45:46.754Z,21.63
2023-05-14T01:48:13.593Z,22.50
2023-05-14T01:50:40.309Z,21.85
2023-05-14T01:53:07.310Z,22.55
2023-05-14T01:55:34.078Z,21.92
2023-05-14T01:58:01.014Z,17.42
2023-05-14T02:00:27.796Z,16.35
2023-05-14T02:02:54.576Z,22.92
2023-05-14T02:05:21.690Z,17.75
2023-05-14T02:07:48.422Z,26.67
2023-05-14T02:10:15.188Z,19.00
2023-05-14T02:12:41.928Z,23.98
2023-05-14T02:15:10.968Z,22.80
2023-05-14T02:17:38.229Z,14.32
2023-05-14T02:20:05.649Z,31.35
2023-05-14T02:22:32.461Z,15.65
2023-05-14T02:24:59.157Z,19.17
2023-05-14T02:27:26.030Z,20.80
2023-05-14T02:29:52.836Z,20.88
2023-05-14T02:32:19.656Z,16.38
2023-05-14T02:34:46.422Z,17.95
2023-05-14T02:37:13.237Z,20.00
2023-05-14T02:39:39.918Z,18.95
2023-05-14T02:42:07.234Z,20.30
2023-05-14T02:44:33.985Z,21.52
2023-05-14T02:47:00.786Z,21.88
2023-05-14T02:49:27.663Z,20.27
2023-05-14T02:51:54.452Z,18.88
2023-05-14T02:54:21.300Z,18.42
2023-05-14T02:56:48.406Z,22.75
2023-05-14T02:59:15.337Z,21.77
2023-05-14T03:01:42.572Z,20.45
2023-05-14T03:04:09.869Z,19.98
2023-05-14T03:06:36.651Z,21.80
2023-05-14T03:09:03.460Z,20.65
2023-05-14T03:11:30.316Z,20.52
2023-05-14T03:13:57.080Z,26.77
2023-05-14T03:16:23.810Z,19.60
2023-05-14T03:18:50.566Z,20.50
2023-05-14T03:21:17.339Z,26.02
2023-05-14T03:23:44.174Z,23.85
2023-05-14T03:26:10.982Z,17.15
2023-05-14T03:28:37.649Z,28.48
2023-05-14T03:31:04.435Z,25.60
2023-05-14T03:33:31.289Z,22.90
2023-05-14T03:35:58.021Z,17.30
2023-05-14T03:38:24.778Z,26.23
2023-05-14T03:40:51.590Z,23.42
2023-05-14T03:43:18.585Z,22.92
2023-05-14T03:45:45.408Z,24.40
2023-05-14T03:48:12.305Z,16.40
2023-05-14T03:50:39.251Z,20.52
2023-05-14T03:53:05.937Z,21.70
2023-05-14T03:55:32.778Z,17.30
2023-05-14T03:57:59.445Z,17.77
2023-05-14T04:00:26.622Z,23.27
2023-05-14T04:02:53.648Z,21.73
2023-05-14T04:05:20.797Z,17.73
2023-05-14T04:07:47.514Z,18.95
2023-05-14T04:10:14.530Z,22.42
2023-05-14T04:12:41.262Z,21.15
2023-05-14T04:15:08.799Z,21.75
2023-05-14T04:17:35.549Z,23.95
2023-05-14T04:20:02.346Z,25.40
2023-05-14T04:22:29.028Z,22.83
2023-05-14T04:24:55.817Z,19.85
2023-05-14T04:27:22.848Z,28.70
2023-05-14T04:29:50.413Z,21.10
2023-05-14T04:32:18.103Z,27.77
2023-05-14T04:34:44.910Z,21.38
2023-05-14T04:37:11.755Z,27.80
2023-05-14T04:39:38.840Z,25.75
2023-05-14T04:42:06.819Z,26.13
2023-05-14T04:44:37.688Z,23.13
2023-05-14T04:47:04.750Z,21.52
2023-05-14T04:49:31.975Z,22.65
2023-05-14T04:51:59.044Z,24.98
2023-05-14T04:54:25.893Z,20.85
2023-05-14T04:56:52.748Z,17.23
2023-05-14T04:59:29.618Z,23.23
2023-05-14T05:01:56.636Z,18.60
2023-05-14T05:04:24.300Z,19.52
2023-05-14T05:06:51.490Z,20.30
2023-05-14T05:09:19.144Z,24.17
2023-05-14T05:11:54.788Z,19.17
2023-05-14T05:14:21.654Z,27.58
2023-05-14T05:16:48.700Z,24.77
2023-05-14T05:19:16.079Z,26.30
2023-05-14T05:21:43.116Z,28.85
2023-05-14T05:24:18.004Z,25.48
2023-05-14T05:26:44.829Z,18.90
2023-05-14T05:29:12.092Z,25.02
2023-05-14T05:31:39.329Z,22.52
2023-05-14T05:34:06.487Z,19.55
2023-05-14T05:36:34.164Z,20.48
2023-05-14T05:39:01.032Z,24.40
2023-05-14T05:41:28.274Z,20.92
2023-05-14T05:43:55.231Z,22.63
2023-05-14T05:46:30.685Z,25.20
2023-05-14T05:48:57.754Z,30.27
2023-05-14T05:51:24.955Z,27.17
2023-05-14T05:53:52.280Z,21.65
2023-05-14T05:56:19.210Z,19.67
2023-05-14T05:58:46.328Z,23.98
2023-05-14T06:01:13.245Z,27.58
2023-05-14T06:03:39.973Z,23.63
2023-05-14T06:06:06.876Z,28.10
2023-05-14T06:08:33.741Z,19.00
2023-05-14T06:11:00.584Z,22.15
2023-05-14T06:13:27.240Z,18.27
2023-05-14T06:15:56.367Z,17.25
2023-05-14T06:18:23.107Z,20.20
2023-05-14T06:20:49.830Z,16.83
2023-05-14T06:23:16.570Z,18.35
2023-05-14T06:25:43.372Z,23.65
2023-05-14T06:28:10.088Z,20.20
2023-05-14T06:30:36.760Z,22.52
2023-05-14T06:33:03.612Z,18.40
2023-05-14T06:35:30.446Z,20.67
2023-05-14T06:37:57.113Z,24.42
2023-05-14T06:40:23.978Z,20.50
2023-05-14T06:42:50.933Z,18.45
2023-05-14T06:45:17.752Z,21.30
2023-05-14T06:47:44.793Z,22.10
2023-05-14T06:50:11.559Z,17.40
2023-05-14T06:52:38.525Z,20.83
2023-05-14T06:55:08.694Z,21.27
2023-05-14T06:57:35.508Z,17.50
2023-05-14T07:00:03.744Z,18.17
2023-05-14T07:02:50.267Z,17.42
2023-05-14T07:05:19.854Z,17.67
2023-05-14T07:08:02.120Z,15.10
2023-05-14T07:10:28.940Z,16.10
2023-05-14T07:12:55.714Z,16.95
2023-05-14T07:15:22.397Z,9.32
2023-05-14T07:17:49.376Z,16.88
2023-05-14T07:20:16.223Z,16.33
2023-05-14T07:22:47.984Z,17.95
2023-05-14T07:25:14.809Z,14.45
2023-05-14T07:27:41.755Z,17.70
2023-05-14T07:30:08.869Z,14.63
2023-05-14T07:32:35.692Z,17.63
2023-05-14T07:35:03.019Z,18.40
2023-05-14T07:37:29.957Z,18.27
2023-05-14T07:39:56.824Z,15.60
2023-05-14T07:42:35.272Z,16.42
2023-05-14T07:45:06.148Z,18.90
2023-05-14T07:47:33.466Z,16.52
2023-05-14T07:50:00.892Z,17.80
2023-05-14T07:52:28.542Z,17.25
2023-05-14T07:54:58.651Z,15.52
2023-05-14T07:57:26.593Z,18.77
2023-05-14T08:00:04.138Z,18.98
2023-05-14T08:02:31.162Z,16.35
2023-05-14T08:05:06.022Z,19.38
2023-05-14T08:07:33.731Z,19.30
2023-05-14T08:10:00.699Z,16.13
2023-05-14T08:12:28.797Z,17.83
2023-05-14T08:14:56.191Z,16.05
2023-05-14T08:17:22.987Z,16.48
2023-05-14T08:19:49.733Z,25.70
2023-05-14T08:22:16.639Z,20.67
2023-05-14T08:24:43.584Z,19.83
2023-05-14T08:27:10.321Z,17.83
2023-05-14T08:29:37.129Z,16.90
2023-05-14T08:32:15.511Z,14.82
2023-05-14T08:34:49.156Z,14.63
2023-05-14T08:37:15.894Z,15.65
2023-05-14T08:39:42.617Z,18.75
2023-05-14T08:42:13.024Z,19.52
2023-05-14T08:44:48.223Z,18.45
2023-05-14T08:47:17.964Z,19.90
2023-05-14T08:49:47.325Z,18.58
2023-05-14T08:52:23.444Z,17.20
2023-05-14T08:54:53.681Z,16.38
2023-05-14T08:57:21.560Z,16.67
2023-05-14T08:59:48.571Z,18.52
2023-05-14T09:02:20.564Z,16.15
2023-05-14T09:04:47.978Z,17.17
2023-05-14T09:07:14.964Z,18.40
2023-05-14T09:09:41.912Z,14.00
2023-05-14T09:12:09.133Z,14.90
2023-05-14T09:14:35.919Z,15.77
2023-05-14T09:17:03.456Z,10.85
2023-05-14T09:19:30.462Z,19.10
2023-05-14T09:21:59.292Z,15.73
2023-05-14T09:24:29.135Z,15.10
2023-05-14T09:26:57.614Z,16.33
2023-05-14T09:29:26.035Z,17.70
2023-05-14T09:31:54.150Z,20.63
2023-05-14T09:34:29.493Z,14.15
2023-05-14T09:37:09.342Z,17.48
2023-05-14T09:39:37.762Z,15.68
2023-05-14T09:42:04.979Z,14.80
2023-05-14T09:44:32.070Z,14.65
2023-05-14T09:46:59.013Z,16.63
2023-05-14T09:49:25.905Z,16.73
2023-05-14T09:51:52.879Z,16.95
2023-05-14T09:54:19.943Z,15.75
2023-05-14T09:56:46.702Z,15.50
2023-05-14T09:59:13.515Z,14.10
2023-05-14T10:01:42.497Z,15.00
2023-05-14T10:04:10.305Z,16.58
2023-05-14T10:06:38.379Z,12.60
2023-05-14T10:09:13.238Z,15.18
2023-05-14T10:11:43.863Z,14.15
2023-05-14T10:14:36.130Z,14.88
2023-05-14T10:17:03.312Z,17.70
2023-05-14T10:19:37.461Z,17.15
2023-05-14T10:22:05.913Z,16.52
2023-05-14T10:24:35.899Z,18.17
2023-05-14T10:27:02.936Z,16.42
2023-05-14T10:29:37.462Z,16.23
2023-05-14T10:32:06.735Z,19.55
2023-05-14T10:34:41.729Z,17.60
2023-05-14T10:37:11.825Z,15.32
2023-05-14T10:42:14.050Z,17.75
2023-05-14T10:44:47.619Z,16.38
2023-05-14T10:47:16.947Z,13.98
2023-05-14T10:49:45.609Z,16.73
2023-05-14T10:52:16.948Z,15.10
2023-05-14T10:55:13.009Z,15.00
2023-05-14T10:57:43.686Z,15.10
2023-05-14T11:00:13.812Z,18.85
2023-05-14T11:02:52.272Z,16.40
2023-05-14T11:05:19.394Z,16.40
2023-05-14T11:07:51.285Z,17.27
2023-05-14T11:10:21.972Z,13.95
2023-05-14T11:12:54.399Z,14.52
2023-05-14T11:15:23.476Z,11.88
2023-05-14T11:17:52.246Z,15.38
2023-05-14T11:20:22.356Z,13.73
2023-05-14T11:22:51.920Z,15.90
2023-05-14T11:25:19.016Z,15.35
2023-05-14T11:27:47.529Z,15.70
2023-05-14T11:30:18.269Z,14.75
2023-05-14T11:32:50.201Z,15.57
2023-05-14T11:35:18.174Z,14.20
2023-05-14T11:37:52.816Z,13.98
2023-05-14T11:40:20.032Z,18.15
2023-05-14T11:42:47.198Z,16.77
2023-05-14T11:45:26.244Z,17.73
2023-05-14T11:47:56.655Z,16.60
2023-05-14T11:50:24.480Z,18.15
2023-05-14T11:52:57.107Z,17.67
2023-05-14T11:55:26.010Z,16.77
2023-05-14T11:57:53.002Z,17.27
2023-05-14T12:00:24.877Z,17.40
2023-05-14T12:02:52.434Z,15.38
2023-05-14T12:05:19.629Z,16.58
2023-05-14T12:07:57.076Z,15.32
2023-05-14T12:10:24.254Z,15.13
2023-05-14T12:12:51.287Z,15.18
2023-05-14T12:15:18.326Z,17.23
2023-05-14T12:17:52.049Z,14.83
2023-05-14T12:20:19.130Z,13.97
2023-05-14T12:22:48.661Z,15.60
2023-05-14T12:25:16.440Z,14.70
2023-05-14T12:27:56.249Z,14.45
2023-05-14T12:30:31.894Z,14.80
2023-05-14T12:33:01.315Z,13.70
2023-05-14T12:35:28.723Z,13.70
2023-05-14T12:38:04.020Z,14.75
2023-05-14T12:40:31.960Z,15.70
2023-05-14T12:42:58.857Z,14.90
2023-05-14T12:45:26.356Z,16.02
2023-05-14T12:47:56.210Z,15.17
2023-05-14T12:50:23.293Z,15.15
2023-05-14T12:52:50.472Z,14.55
2023-05-14T12:55:17.802Z,16.23
2023-05-14T12:57:45.006Z,14.00
2023-05-14T13:00:14.309Z,14.93
2023-05-14T13:02:43.021Z,13.85
2023-05-14T13:05:11.597Z,15.07
2023-05-14T13:07:39.077Z,13.07
2023-05-14T13:10:06.774Z,14.27
2023-05-14T13:12:36.582Z,17.33
2023-05-14T13:15:03.548Z,15.60
2023-05-14T13:17:30.612Z,14.30
2023-05-14T13:19:57.421Z,15.93
2023-05-14T13:22:24.316Z,15.50
2023-05-14T13:24:51.031Z,15.05
2023-05-14T13:27:17.762Z,13.95
2023-05-14T13:29:44.474Z,13.15
2023-05-14T13:32:11.813Z,13.80
2023-05-14T13:34:38.580Z,13.68
2023-05-14T13:37:08.086Z,15.45
2023-05-14T13:39:35.194Z,13.20
2023-05-14T13:42:01.902Z,12.45
2023-05-14T13:44:34.470Z,15.15
2023-05-14T13:47:01.340Z,13.82
2023-05-14T13:49:28.149Z,14.63
2023-05-14T13:51:54.967Z,14.50
2023-05-14T13:54:22.239Z,14.55
2023-05-14T13:56:50.862Z,14.60
2023-05-14T13:59:21.158Z,14.20
2023-05-14T14:01:49.919Z,13.13
2023-05-14T14:04:20.455Z,13.07
2023-05-14T14:06:47.845Z,13.27
2023-05-14T14:09:16.769Z,15.27
2023-05-14T14:11:44.477Z,14.43
2023-05-14T14:14:14.591Z,13.40
2023-05-14T14:16:41.585Z,14.38
2023-05-14T14:19:08.967Z,14.63
2023-05-14T14:21:36.238Z,13.73
2023-05-14T14:24:02.973Z,13.35
2023-05-14T14:26:29.747Z,12.88
2023-05-14T14:28:59.462Z,13.40
2023-05-14T14:31:26.262Z,13.43
2023-05-14T14:33:53.126Z,15.48
2023-05-14T14:36:19.856Z,13.45
2023-05-14T14:38:46.623Z,14.38
2023-05-14T14:41:13.369Z,13.13
2023-05-14T14:43:41.138Z,14.48
2023-05-14T14:46:11.150Z,14.63
2023-05-14T14:48:38.486Z,14.45
2023-05-14T14:51:06.958Z,12.90
2023-05-14T14:53:37.491Z,14.13
2023-05-14T14:56:04.534Z,16.23
2023-05-14T14:58:31.358Z,14.98
2023-05-14T15:01:01.579Z,13.25
2023-05-14T15:03:29.045Z,14.55
2023-05-14T15:05:55.950Z,16.70
2023-05-14T15:08:29.793Z,16.43
2023-05-14T15:10:59.501Z,13.80
2023-05-14T15:13:27.033Z,14.80
2023-05-14T15:15:53.873Z,14.75
2023-05-14T15:18:22.040Z,15.02
2023-05-14T15:20:48.886Z,14.45
2023-05-14T15:23:15.656Z,15.65
2023-05-14T15:25:42.307Z,12.93
2023-05-14T15:28:14.115Z,13.70
2023-05-14T15:30:41.160Z,14.65
2023-05-14T15:33:08.752Z,13.45
2023-05-14T15:35:38.054Z,14.18
2023-05-14T15:38:04.811Z,14.90
2023-05-14T15:40:31.587Z,13.73
2023-05-14T15:42:58.265Z,14.02
2023-05-14T15:45:24.926Z,12.87
2023-05-14T15:47:51.701Z,12.40
2023-05-14T15:50:18.682Z,14.87
2023-05-14T15:52:46.069Z,15.73
2023-05-14T15:55:15.802Z,14.33
2023-05-14T15:57:44.626Z,13.57
2023-05-14T16:00:14.483Z,14.93
2023-05-14T16:02:50.691Z,16.77
2023-05-14T16:05:18.263Z,15.63
2023-05-14T16:07:45.472Z,16.08
2023-05-14T16:10:12.288Z,16.83
2023-05-14T16:12:39.143Z,16.33
2023-05-14T16:15:07.943Z,16.85
2023-05-14T16:17:35.111Z,16.77
2023-05-14T16:20:02.028Z,19.80
2023-05-14T16:22:29.432Z,18.65
2023-05-14T16:24:56.113Z,19.42
2023-05-14T16:27:22.971Z,20.48
2023-05-14T16:29:49.747Z,20.27
2023-05-14T16:32:16.640Z,19.60
2023-05-14T16:34:49.676Z,19.73
2023-05-14T16:37:17.148Z,20.52
2023-05-14T16:39:43.975Z,24.80
2023-05-14T16:42:12.985Z,22.30
2023-05-14T16:44:40.392Z,24.95
2023-05-14T16:47:10.450Z,23.38
2023-05-14T16:49:47.642Z,24.33
2023-05-14T16:52:14.693Z,24.45
2023-05-14T16:54:41.636Z,26.77
2023-05-14T16:57:08.378Z,24.80
2023-05-14T16:59:35.072Z,24.23
2023-05-14T17:02:01.957Z,23.80
2023-05-14T17:04:28.972Z,25.65
2023-05-14T17:06:57.250Z,25.90
2023-05-14T17:09:24.092Z,24.93
2023-05-14T17:11:51.234Z,24.80
2023-05-14T17:14:18.112Z,23.98
2023-05-14T17:16:45.322Z,23.95
2023-05-14T17:19:15.162Z,26.80
2023-05-14T17:21:42.160Z,25.52
2023-05-14T17:24:09.377Z,26.83
2023-05-14T17:26:37.943Z,25.10
2023-05-14T17:29:05.176Z,25.00
2023-05-14T17:31:32.272Z,26.90
2023-05-14T17:33:59.027Z,24.85
2023-05-14T17:36:28.329Z,26.57
2023-05-14T17:38:55.360Z,26.05
2023-05-14T17:41:22.208Z,25.20
2023-05-14T17:43:52.559Z,26.30
2023-05-14T17:46:19.967Z,23.60
2023-05-14T17:48:47.284Z,26.35
2023-05-14T17:51:14.255Z,25.35
2023-05-14T17:53:41.230Z,25.13
2023-05-14T17:56:08.303Z,26.38
2023-05-14T17:58:36.194Z,25.75
2023-05-14T18:01:06.357Z,24.45
2023-05-14T18:03:34.130Z,25.25
2023-05-14T18:06:02.165Z,26.58
2023-05-14T18:08:29.891Z,26.00
2023-05-14T18:10:58.487Z,25.65
2023-05-14T18:13:25.805Z,27.92
2023-05-14T18:15:55.259Z,29.75
2023-05-14T18:18:24.268Z,26.10
2023-05-14T18:20:52.657Z,27.67
2023-05-14T18:23:20.550Z,26.25
2023-05-14T18:25:48.510Z,23.65
2023-05-14T18:28:19.709Z,27.52
2023-05-14T18:30:47.860Z,24.52
2023-05-14T18:33:20.548Z,26.05
2023-05-14T18:35:48.421Z,28.27
2023-05-14T18:38:18.292Z,28.02
2023-05-14T18:40:46.388Z,24.90
2023-05-14T18:43:20.754Z,27.90
2023-05-14T18:45:51.677Z,25.42
2023-05-14T18:48:27.402Z,23.30
2023-05-14T18:50:58.245Z,29.33
2023-05-14T18:53:27.660Z,28.60
2023-05-14T18:55:55.534Z,24.15
2023-05-14T18:58:22.787Z,28.17
2023-05-14T19:00:53.265Z,27.20
2023-05-14T19:03:25.611Z,28.85
2023-05-14T19:05:55.311Z,27.83
2023-05-14T19:08:23.613Z,30.33
2023-05-14T19:10:51.980Z,30.02
2023-05-14T19:15:48.572Z,31.05
2023-05-14T19:18:21.316Z,27.25
2023-05-14T19:20:49.618Z,29.90
2023-05-14T19:23:16.664Z,26.98
2023-05-14T19:25:43.804Z,29.88
2023-05-14T19:28:13.615Z,30.27
2023-05-14T19:30:41.947Z,31.08
2023-05-14T19:33:09.956Z,34.88
2023-05-14T19:35:38.028Z,33.25
2023-05-14T19:38:17.764Z,33.85
2023-05-14T19:40:47.206Z,29.63
2023-05-14T19:43:14.695Z,32.13
2023-05-14T19:45:42.745Z,31.67
2023-05-14T19:48:09.821Z,28.55
2023-05-14T19:50:37.177Z,31.52
2023-05-14T19:53:04.576Z,31.33
2023-05-14T19:55:31.382Z,27.67
2023-05-14T19:57:58.777Z,33.03
2023-05-14T20:00:26.831Z,32.45
2023-05-14T20:02:54.621Z,33.80
2023-05-14T20:05:24.317Z,31.25
2023-05-14T20:07:51.099Z,29.95
2023-05-14T20:10:18.046Z,35.63
2023-05-14T20:12:45.066Z,31.17
2023-05-14T20:15:12.191Z,31.67
2023-05-14T20:17:39.662Z,37.95
2023-05-14T20:20:07.101Z,32.70
2023-05-14T20:22:33.979Z,33.38
2023-05-14T20:25:10.009Z,30.98
2023-05-14T20:27:37.206Z,31.15
2023-05-14T20:30:12.563Z,28.70
2023-05-14T20:32:42.237Z,31.30
2023-05-14T20:35:09.199Z,36.25
2023-05-14T20:37:36.384Z,37.47
2023-05-14T20:40:12.738Z,29.58
2023-05-14T20:42:39.614Z,31.92
2023-05-14T20:45:07.067Z,31.55
2023-05-14T20:47:34.259Z,38.53
2023-05-14T20:50:01.430Z,26.60
2023-05-14T20:52:28.519Z,33.85
2023-05-14T20:55:00.806Z,38.22
2023-05-14T20:57:28.649Z,37.50
2023-05-14T20:59:55.604Z,34.42
2023-05-14T21:02:22.446Z,35.53
2023-05-14T21:04:49.747Z,41.10
2023-05-14T21:07:16.654Z,38.85
2023-05-14T21:09:50.969Z,34.22
2023-05-14T21:12:19.815Z,39.75
2023-05-14T21:14:57.707Z,40.50
2023-05-14T21:17:25.005Z,34.35
2023-05-14T21:20:00.226Z,35.13
2023-05-14T21:22:27.843Z,41.03
2023-05-14T21:24:56.177Z,40.13
2023-05-14T21:27:23.271Z,35.00
2023-05-14T21:29:50.247Z,36.90
2023-05-14T21:32:20.391Z,33.80
2023-05-14T21:34:48.129Z,34.92
2023-05-14T21:37:15.295Z,38.25
2023-05-14T21:39:49.602Z,40.65
2023-05-14T21:42:16.803Z,40.97
2023-05-14T21:44:43.670Z,37.63
2023-05-14T21:47:12.163Z,39.38
2023-05-14T21:49:39.496Z,37.47
2023-05-14T21:52:06.598Z,34.10
2023-05-14T21:54:33.988Z,35.03
2023-05-14T21:57:01.733Z,39.92
2023-05-14T21:59:29.076Z,33.20
2023-05-14T22:02:06.933Z,38.95
2023-05-14T22:04:35.447Z,39.60
2023-05-14T22:07:03.245Z,33.92
2023-05-14T22:09:30.711Z,30.23
2023-05-14T22:11:59.384Z,36.95
2023-05-14T22:14:28.543Z,33.45
2023-05-14T22:16:55.671Z,35.45
2023-05-14T22:19:22.837Z,35.78
2023-05-14T22:21:49.674Z,37.85
2023-05-14T22:24:16.652Z,35.90
2023-05-14T22:26:43.944Z,34.92
2023-05-14T22:29:11.052Z,31.45
2023-05-14T22:31:37.979Z,35.45
2023-05-14T22:34:15.624Z,26.77
2023-05-14T22:36:51.820Z,31.08
2023-05-14T22:39:28.564Z,31.77
2023-05-14T22:41:58.617Z,31.52
2023-05-14T22:44:34.052Z,33.60
2023-05-14T22:47:15.276Z,33.08
2023-05-14T22:49:43.744Z,32.35
2023-05-14T22:52:13.964Z,31.77
2023-05-14T22:54:41.069Z,36.95
2023-05-14T22:57:08.283Z,30.27
2023-05-14T22:59:35.152Z,38.67
2023-05-14T23:02:02.481Z,34.75
2023-05-14T23:04:29.328Z,31.42
2023-05-14T23:06:56.207Z,36.95
2023-05-14T23:09:22.915Z,36.10
2023-05-14T23:11:49.661Z,36.35
2023-05-14T23:14:17.967Z,33.55
2023-05-14T23:16:44.745Z,32.20
2023-05-14T23:19:11.700Z,33.15
2023-05-14T23:21:38.765Z,32.63
2023-05-14T23:24:05.637Z,32.60
2023-05-14T23:26:32.719Z,37.05
2023-05-14T23:28:59.391Z,39.78
2023-05-14T23:31:26.151Z,42.97
2023-05-14T23:33:52.833Z,39.55
2023-05-14T23:36:19.620Z,39.58
2023-05-14T23:38:46.334Z,42.13
2023-05-14T23:41:13.144Z,36.85
2023-05-14T23:43:39.845Z,40.00
2023-05-14T23:46:06.648Z,41.65
2023-05-14T23:48:33.583Z,39.03
2023-05-14T23:51:00.281Z,33.72
2023-05-14T23:53:27.012Z,36.30
2023-05-14T23:55:53.789Z,43.80
2023-05-14T23:58:20.776Z,38.38
